createdAt,value
2018-01-07T00:00:32.448Z,5.00
2018-01-07T00:03:01.008Z,5.10
2018-01-07T00:05:28.769Z,5.10
2018-01-07T00:07:56.548Z,5.10
2018-01-07T00:10:24.368Z,5.00
2018-01-07T00:12:52.388Z,4.90
2018-01-07T00:15:20.308Z,5.00
2018-01-07T00:17:48.143Z,5.00
2018-01-07T00:20:16.382Z,5.00
2018-01-07T00:22:44.141Z,4.90
2018-01-07T00:25:12.342Z,4.90
2018-01-07T00:27:40.181Z,4.80
2018-01-07T00:30:08.163Z,4.70
2018-01-07T00:32:35.982Z,4.80
2018-01-07T00:35:03.742Z,4.80
2018-01-07T00:37:32.002Z,4.80
2018-01-07T00:40:00.484Z,4.70
2018-01-07T00:42:28.222Z,4.60
2018-01-07T00:44:56.182Z,4.70
2018-01-07T00:47:24.141Z,4.60
2018-01-07T00:49:51.981Z,4.50
2018-01-07T00:52:20.543Z,4.40
2018-01-07T00:54:48.364Z,4.30
2018-01-07T00:57:16.724Z,4.20
2018-01-07T00:59:44.622Z,4.10
2018-01-07T01:02:12.446Z,4.10
2018-01-07T01:04:41.326Z,4.10
2018-01-07T01:07:09.986Z,4.10
2018-01-07T01:09:37.765Z,4.00
2018-01-07T01:12:05.550Z,4.10
2018-01-07T01:14:34.385Z,4.10
2018-01-07T01:17:02.227Z,4.10
2018-01-07T01:19:30.187Z,4.00
2018-01-07T01:21:58.005Z,3.90
2018-01-07T01:24:26.585Z,3.90
2018-01-07T01:26:55.804Z,4.10
2018-01-07T01:29:23.582Z,4.10
2018-01-07T01:31:51.449Z,4.00
2018-01-07T01:34:19.341Z,3.90
2018-01-07T01:36:47.170Z,3.60
2018-01-07T01:39:15.083Z,3.40
2018-01-07T01:41:42.880Z,3.30
2018-01-07T01:44:10.742Z,3.20
2018-01-07T01:46:39.105Z,3.20
2018-01-07T01:49:19.163Z,3.10
2018-01-07T01:51:47.522Z,2.90
2018-01-07T01:56:48.703Z,2.70
2018-01-07T01:59:16.523Z,2.70
2018-01-07T02:01:44.427Z,2.70
2018-01-07T02:04:12.245Z,2.70
2018-01-07T02:06:40.127Z,2.70
2018-01-07T02:09:07.906Z,2.60
2018-01-07T02:11:36.541Z,2.80
2018-01-07T02:14:04.806Z,2.80
2018-01-07T02:16:33.685Z,2.80
2018-01-07T02:19:01.526Z,2.80
2018-01-07T02:21:29.347Z,2.70
2018-01-07T02:23:57.053Z,2.80
2018-01-07T02:26:24.945Z,2.80
2018-01-07T02:28:52.845Z,2.60
2018-01-07T02:31:20.811Z,2.80
2018-01-07T02:33:49.926Z,3.00
2018-01-07T02:36:17.744Z,3.00
2018-01-07T02:38:45.604Z,3.00
2018-01-07T02:41:13.444Z,2.90
2018-01-07T02:43:41.545Z,2.60
2018-01-07T02:46:09.264Z,2.40
2018-01-07T02:48:37.303Z,2.20
2018-01-07T02:51:05.981Z,2.20
2018-01-07T02:53:33.881Z,2.20
2018-01-07T02:56:01.680Z,2.30
2018-01-07T02:58:29.540Z,2.40
2018-01-07T03:00:57.459Z,2.40
2018-01-07T03:03:25.302Z,2.40
2018-01-07T03:05:54.040Z,2.50
2018-01-07T03:08:21.825Z,2.40
2018-01-07T03:10:49.920Z,2.40
2018-01-07T03:13:17.774Z,2.40
2018-01-07T03:15:46.401Z,2.20
2018-01-07T03:18:15.721Z,2.20
2018-01-07T03:20:44.263Z,2.10
2018-01-07T03:23:12.542Z,2.00
2018-01-07T03:25:40.359Z,1.90
2018-01-07T03:28:08.160Z,1.80
2018-01-07T03:30:36.420Z,1.80
2018-01-07T03:33:05.301Z,1.90
2018-01-07T03:35:33.599Z,2.30
2018-01-07T03:38:02.761Z,2.30
2018-01-07T03:40:30.540Z,2.20
2018-01-07T03:42:59.301Z,2.20
2018-01-07T03:45:27.125Z,2.20
2018-01-07T03:47:55.681Z,2.10
2018-01-07T03:50:23.430Z,2.00
2018-01-07T03:52:51.087Z,2.10
2018-01-07T03:55:19.658Z,2.20
2018-01-07T03:57:48.341Z,2.40
2018-01-07T04:00:16.927Z,2.40
2018-01-07T04:02:46.281Z,2.40
2018-01-07T04:05:14.125Z,2.50
2018-01-07T04:07:42.685Z,2.90
2018-01-07T04:10:10.583Z,2.90
2018-01-07T04:12:38.361Z,3.00
2018-01-07T04:15:06.323Z,3.10
2018-01-07T04:17:34.141Z,3.20
2018-01-07T04:20:01.942Z,3.20
2018-01-07T04:22:29.641Z,3.20
2018-01-07T04:24:57.341Z,3.20
2018-01-07T04:27:25.121Z,3.30
2018-01-07T04:29:52.941Z,3.30
2018-01-07T04:32:20.901Z,3.30
2018-01-07T04:34:48.702Z,3.30
2018-01-07T04:37:16.622Z,3.30
2018-01-07T04:39:44.462Z,3.30
2018-01-07T04:42:12.262Z,3.30
2018-01-07T04:44:40.144Z,3.20
2018-01-07T04:47:07.882Z,3.20
2018-01-07T04:49:36.062Z,3.20
2018-01-07T04:52:04.182Z,3.10
2018-01-07T04:54:32.002Z,3.00
2018-01-07T04:56:59.881Z,3.00
2018-01-07T04:59:27.702Z,3.10
2018-01-07T05:01:55.518Z,3.20
2018-01-07T05:04:23.359Z,3.20
2018-01-07T05:06:52.599Z,3.30
2018-01-07T05:09:20.678Z,3.30
2018-01-07T05:11:48.546Z,3.30
2018-01-07T05:14:16.498Z,3.30
2018-01-07T05:16:44.379Z,3.30
2018-01-07T05:19:12.299Z,3.40
2018-01-07T05:21:40.122Z,3.30
2018-01-07T05:24:08.741Z,3.30
2018-01-07T05:26:36.459Z,3.30
2018-01-07T05:29:04.444Z,3.30
2018-01-07T05:31:32.368Z,3.30
2018-01-07T05:34:00.318Z,3.30
2018-01-07T05:36:28.298Z,3.30
2018-01-07T05:38:56.300Z,3.30
2018-01-07T05:41:24.219Z,3.30
2018-01-07T05:43:53.583Z,3.20
2018-01-07T05:46:21.821Z,3.20
2018-01-07T05:48:49.658Z,3.20
2018-01-07T05:51:17.558Z,3.20
2018-01-07T05:53:45.938Z,3.20
2018-01-07T05:56:13.843Z,3.20
2018-01-07T05:58:41.807Z,3.20
2018-01-07T06:01:09.585Z,3.10
2018-01-07T06:03:37.306Z,3.20
2018-01-07T06:06:05.005Z,3.10
2018-01-07T06:08:33.443Z,3.10
2018-01-07T06:11:01.157Z,3.00
2018-01-07T06:13:29.105Z,2.90
2018-01-07T06:15:56.924Z,2.80
2018-01-07T06:18:24.904Z,2.80
2018-01-07T06:20:52.684Z,2.80
2018-01-07T06:23:20.464Z,2.80
2018-01-07T06:25:48.944Z,2.80
2018-01-07T06:28:16.784Z,2.80
2018-01-07T06:30:44.803Z,2.80
2018-01-07T06:33:12.684Z,2.90
2018-01-07T06:35:40.544Z,3.00
2018-01-07T06:38:08.304Z,3.10
2018-01-07T06:40:36.264Z,3.00
2018-01-07T06:43:04.244Z,3.00
2018-01-07T06:45:32.024Z,3.00
2018-01-07T06:47:59.865Z,2.90
2018-01-07T06:50:27.663Z,2.90
2018-01-07T06:52:56.163Z,3.00
2018-01-07T06:55:23.985Z,3.00
2018-01-07T06:57:51.743Z,2.90
2018-01-07T07:00:20.505Z,2.90
2018-01-07T07:02:48.402Z,2.90
2018-01-07T07:05:16.358Z,2.90
2018-01-07T07:07:44.119Z,3.10
2018-01-07T07:10:11.946Z,3.30
2018-01-07T07:12:39.779Z,3.40
2018-01-07T07:15:07.558Z,3.40
2018-01-07T07:17:35.440Z,3.40
2018-01-07T07:20:03.202Z,3.40
2018-01-07T07:22:31.239Z,3.50
2018-01-07T07:24:59.261Z,3.50
2018-01-07T07:27:27.201Z,3.50
2018-01-07T07:29:54.932Z,3.60
2018-01-07T07:34:55.660Z,3.50
2018-01-07T07:37:23.560Z,3.60
2018-01-07T07:39:51.461Z,3.80
2018-01-07T07:44:51.235Z,3.90
2018-01-07T07:47:19.439Z,3.90
2018-01-07T07:49:47.238Z,4.00
2018-01-07T07:52:15.101Z,4.10
2018-01-07T07:54:42.960Z,4.20
2018-01-07T07:57:10.781Z,4.30
2018-01-07T07:59:38.718Z,4.30
2018-01-07T08:02:06.562Z,4.40
2018-01-07T08:04:34.442Z,4.50
2018-01-07T08:07:02.743Z,4.60
2018-01-07T08:09:30.643Z,4.60
2018-01-07T08:11:58.442Z,4.60
2018-01-07T08:14:27.055Z,5.00
2018-01-07T08:16:54.871Z,5.00
2018-01-07T08:19:23.601Z,5.20
2018-01-07T08:21:51.539Z,5.20
2018-01-07T08:24:19.440Z,5.20
2018-01-07T08:26:47.212Z,5.20
2018-01-07T08:29:15.859Z,5.40
2018-01-07T08:31:44.059Z,5.40
2018-01-07T08:34:11.859Z,5.60
2018-01-07T08:36:39.679Z,5.70
2018-01-07T08:39:07.999Z,5.80
2018-01-07T08:41:36.300Z,5.90
2018-01-07T08:44:04.180Z,6.10
2018-01-07T08:46:31.939Z,6.20
2018-01-07T08:49:00.121Z,6.30
2018-01-07T08:51:27.958Z,6.50
2018-01-07T08:53:55.706Z,6.80
2018-01-07T08:56:23.539Z,7.10
2018-01-07T08:58:51.360Z,7.40
2018-01-07T09:01:19.224Z,7.70
2018-01-07T09:03:47.186Z,7.90
2018-01-07T09:06:14.886Z,8.20
2018-01-07T09:08:43.048Z,8.60
2018-01-07T09:11:11.264Z,9.10
2018-01-07T09:13:39.006Z,9.80
2018-01-07T09:16:06.766Z,10.50
2018-01-07T09:18:34.759Z,11.20
2018-01-07T09:21:02.585Z,11.80
2018-01-07T09:23:30.366Z,12.20
2018-01-07T09:25:58.105Z,12.50
2018-01-07T09:28:25.986Z,12.60
2018-01-07T09:30:53.785Z,12.70
2018-01-07T09:33:21.587Z,13.00
2018-01-07T09:35:49.905Z,13.50
2018-01-07T09:38:17.701Z,13.70
2018-01-07T09:40:45.601Z,14.00
2018-01-07T09:43:13.743Z,13.90
2018-01-07T09:45:41.779Z,13.20
2018-01-07T09:48:09.558Z,12.30
2018-01-07T09:50:37.741Z,11.60
2018-01-07T09:53:06.238Z,11.30
2018-01-07T09:55:34.086Z,10.60
2018-01-07T09:58:01.919Z,10.30
2018-01-07T10:00:29.662Z,9.80
2018-01-07T10:02:57.407Z,9.40
2018-01-07T10:05:25.216Z,9.20
2018-01-07T10:07:53.028Z,9.00
2018-01-07T10:10:21.686Z,8.90
2018-01-07T10:12:49.445Z,8.90
2018-01-07T10:15:17.286Z,8.80
2018-01-07T10:17:45.145Z,8.60
2018-01-07T10:20:13.072Z,8.60
2018-01-07T10:22:40.842Z,8.50
2018-01-07T10:25:08.544Z,8.40
2018-01-07T10:27:36.565Z,8.30
2018-01-07T10:30:05.223Z,8.40
2018-01-07T10:32:33.340Z,8.40
2018-01-07T10:35:01.561Z,8.30
2018-01-07T10:37:29.483Z,8.30
2018-01-07T10:39:57.370Z,8.30
2018-01-07T10:42:25.216Z,8.30
2018-01-07T10:44:53.177Z,8.30
2018-01-07T10:47:21.085Z,8.40
2018-01-07T10:49:48.911Z,8.60
2018-01-07T10:52:16.826Z,8.70
2018-01-07T10:54:44.783Z,8.70
2018-01-07T10:57:12.583Z,8.70
2018-01-07T10:59:40.425Z,8.70
2018-01-07T11:02:16.160Z,8.70
2018-01-07T11:04:44.042Z,8.80
2018-01-07T11:07:11.799Z,9.00
2018-01-07T11:09:39.620Z,9.00
2018-01-07T11:12:07.523Z,9.10
2018-01-07T11:14:35.302Z,9.20
2018-01-07T11:17:03.141Z,9.30
2018-01-07T11:19:31.056Z,9.40
2018-01-07T11:21:58.768Z,9.40
2018-01-07T11:24:26.568Z,9.40
2018-01-07T11:26:54.328Z,9.20
2018-01-07T11:29:22.248Z,9.10
2018-01-07T11:31:50.150Z,9.10
2018-01-07T11:34:17.909Z,9.00
2018-01-07T11:36:45.822Z,9.10
2018-01-07T11:39:13.602Z,9.10
2018-01-07T11:41:41.427Z,9.30
2018-01-07T11:44:11.945Z,9.30
2018-01-07T11:46:39.763Z,9.30
2018-01-07T11:49:07.620Z,9.30
2018-01-07T11:51:35.430Z,9.20
2018-01-07T11:54:03.359Z,9.20
2018-01-07T11:56:31.339Z,9.10
2018-01-07T11:58:59.067Z,9.20
2018-01-07T12:01:26.823Z,9.20
2018-01-07T12:03:54.720Z,9.20
2018-01-07T12:06:22.539Z,9.40
2018-01-07T12:08:50.279Z,9.50
2018-01-07T12:11:18.101Z,9.60
2018-01-07T12:13:45.908Z,9.60
2018-01-07T12:16:13.661Z,9.70
2018-01-07T12:18:41.581Z,9.70
2018-01-07T12:21:09.503Z,9.60
2018-01-07T12:23:37.383Z,9.50
2018-01-07T12:26:05.524Z,9.30
2018-01-07T12:28:33.382Z,9.30
2018-01-07T12:31:01.264Z,9.30
2018-01-07T12:33:29.024Z,9.20
2018-01-07T12:35:57.003Z,9.00
2018-01-07T12:38:24.929Z,9.00
2018-01-07T12:40:55.364Z,8.90
2018-01-07T12:43:23.523Z,8.90
2018-01-07T12:45:51.523Z,9.00
2018-01-07T12:48:19.382Z,9.00
2018-01-07T12:50:47.330Z,9.00
2018-01-07T12:53:15.263Z,8.90
2018-01-07T12:55:43.121Z,8.80
2018-01-07T12:58:10.881Z,8.70
2018-01-07T13:00:38.772Z,8.60
2018-01-07T13:03:06.905Z,8.50
2018-01-07T13:05:34.665Z,8.70
2018-01-07T13:08:02.480Z,8.80
2018-01-07T13:10:30.359Z,8.80
2018-01-07T13:12:58.120Z,8.70
2018-01-07T13:15:25.859Z,8.60
2018-01-07T13:20:45.599Z,8.40
2018-01-07T13:23:13.379Z,8.30
2018-01-07T13:25:41.219Z,8.30
2018-01-07T13:28:09.181Z,8.30
2018-01-07T13:30:36.962Z,8.40
2018-01-07T13:33:04.740Z,8.50
2018-01-07T13:35:32.619Z,8.50
2018-01-07T13:38:00.462Z,8.30
2018-01-07T13:40:28.232Z,8.10
2018-01-07T13:42:56.160Z,8.00
2018-01-07T13:45:23.919Z,7.80
2018-01-07T13:47:51.929Z,7.80
2018-01-07T13:50:19.819Z,7.90
2018-01-07T13:52:48.358Z,7.80
2018-01-07T13:55:16.223Z,7.80
2018-01-07T13:57:43.986Z,7.80
2018-01-07T14:00:17.546Z,7.80
2018-01-07T14:02:45.422Z,7.70
2018-01-07T14:05:13.202Z,7.60
2018-01-07T14:07:41.271Z,7.60
2018-01-07T14:10:09.185Z,7.60
2018-01-07T14:12:38.527Z,7.60
2018-01-07T14:15:06.243Z,7.50
2018-01-07T14:17:34.123Z,7.50
2018-01-07T14:20:01.927Z,7.40
2018-01-07T14:22:29.643Z,7.40
2018-01-07T14:24:57.405Z,7.30
2018-01-07T14:27:25.881Z,7.10
2018-01-07T14:29:53.782Z,7.10
2018-01-07T14:32:21.765Z,7.00
2018-01-07T14:34:49.726Z,7.00
2018-01-07T14:37:17.523Z,7.00
2018-01-07T14:39:45.662Z,7.00
2018-01-07T14:42:13.466Z,6.90
2018-01-07T14:44:41.346Z,6.80
2018-01-07T14:47:10.664Z,6.70
2018-01-07T14:49:38.483Z,6.60
2018-01-07T14:52:06.265Z,6.50
2018-01-07T14:54:34.143Z,6.40
2018-01-07T14:57:02.066Z,6.40
2018-01-07T14:59:29.926Z,6.50
2018-01-07T15:01:57.680Z,6.30
2018-01-07T15:04:25.765Z,6.20
2018-01-07T15:06:53.621Z,6.00
2018-01-07T15:09:21.420Z,5.90
2018-01-07T15:11:49.920Z,5.90
2018-01-07T15:14:17.729Z,5.90
2018-01-07T15:16:45.557Z,6.00
2018-01-07T15:19:13.464Z,6.00
2018-01-07T15:21:41.360Z,6.00
2018-01-07T15:24:09.162Z,6.00
2018-01-07T15:26:36.965Z,6.10
2018-01-07T15:29:04.785Z,5.90
2018-01-07T15:31:32.600Z,5.90
2018-01-07T15:34:01.122Z,5.50
2018-01-07T15:36:29.179Z,5.50
2018-01-07T15:38:57.361Z,5.20
2018-01-07T15:41:25.179Z,5.00
2018-01-07T15:43:53.138Z,4.90
2018-01-07T15:46:21.100Z,4.90
2018-01-07T15:48:48.883Z,4.80
2018-01-07T15:51:16.743Z,4.60
2018-01-07T15:53:44.643Z,4.30
2018-01-07T15:56:12.466Z,4.30
2018-01-07T15:58:40.303Z,4.30
2018-01-07T16:01:08.666Z,4.10
2018-01-07T16:03:36.728Z,3.70
2018-01-07T16:06:05.000Z,3.40
2018-01-07T16:08:32.802Z,3.60
2018-01-07T16:11:00.559Z,3.70
2018-01-07T16:13:28.510Z,3.70
2018-01-07T16:15:56.540Z,3.80
2018-01-07T16:18:25.208Z,3.90
2018-01-07T16:20:53.400Z,3.80
2018-01-07T16:23:21.260Z,4.00
2018-01-07T16:25:49.104Z,4.00
2018-01-07T16:28:16.848Z,4.00
2018-01-07T16:36:17.665Z,3.70
2018-01-07T16:39:03.828Z,3.70
2018-01-07T16:41:38.137Z,3.70
2018-01-07T16:44:06.865Z,3.90
2018-01-07T16:46:35.320Z,3.90
2018-01-07T16:49:03.165Z,3.90
2018-01-07T16:51:31.146Z,3.70
2018-01-07T16:53:58.994Z,3.50
2018-01-07T16:56:26.947Z,3.40
2018-01-07T16:58:54.763Z,3.70
2018-01-07T17:01:22.660Z,3.90
2018-01-07T17:03:50.690Z,3.80
2018-01-07T17:06:18.609Z,3.30
2018-01-07T17:08:46.660Z,3.30
2018-01-07T17:11:15.341Z,3.60
2018-01-07T17:13:43.102Z,3.60
2018-01-07T17:16:11.076Z,3.80
2018-01-07T17:21:10.904Z,3.80
2018-01-07T17:23:38.700Z,3.50
2018-01-07T17:26:06.439Z,3.20
2018-01-07T17:28:35.141Z,3.00
2018-01-07T17:31:02.966Z,2.90
2018-01-07T17:33:31.503Z,2.70
2018-01-07T17:35:59.346Z,2.70
2018-01-07T17:38:27.180Z,2.80
2018-01-07T17:40:54.987Z,3.00
2018-01-07T17:43:22.825Z,3.30
2018-01-07T17:45:50.605Z,3.30
2018-01-07T17:50:50.320Z,2.90
2018-01-07T17:53:18.111Z,3.10
2018-01-07T17:55:46.128Z,3.30
2018-01-07T17:58:13.981Z,3.40
2018-01-07T18:00:42.264Z,3.50
2018-01-07T18:03:10.665Z,3.60
2018-01-07T18:05:38.479Z,3.70
2018-01-07T18:08:06.141Z,3.80
2018-01-07T18:10:33.911Z,3.90
2018-01-07T18:13:05.668Z,3.90
2018-01-07T18:15:33.587Z,3.90
2018-01-07T18:18:02.068Z,3.80
2018-01-07T18:20:29.838Z,3.80
2018-01-07T18:22:57.629Z,3.90
2018-01-07T18:25:25.484Z,4.00
2018-01-07T18:27:53.563Z,4.20
2018-01-07T18:30:21.921Z,4.30
2018-01-07T18:35:34.662Z,3.90
2018-01-07T18:38:05.470Z,3.80
2018-01-07T18:40:33.957Z,3.80
2018-01-07T18:43:01.931Z,3.90
2018-01-07T18:45:29.922Z,3.90
2018-01-07T18:47:57.693Z,3.90
2018-01-07T18:50:25.542Z,3.90
2018-01-07T18:52:53.487Z,3.90
2018-01-07T18:55:21.425Z,4.00
2018-01-07T18:57:49.227Z,4.10
2018-01-07T19:00:19.477Z,4.10
2018-01-07T19:02:48.267Z,4.20
2018-01-07T19:05:16.284Z,4.30
2018-01-07T19:10:16.003Z,4.10
2018-01-07T19:12:43.820Z,4.10
2018-01-07T19:15:14.073Z,4.20
2018-01-07T19:17:42.062Z,4.30
2018-01-07T19:20:10.401Z,4.40
2018-01-07T19:22:38.291Z,4.30
2018-01-07T19:25:06.121Z,4.30
2018-01-07T19:27:33.942Z,4.20
2018-01-07T19:30:01.784Z,4.10
2018-01-07T19:32:29.704Z,4.00
2018-01-07T19:34:58.100Z,3.90
2018-01-07T19:37:26.189Z,3.70
2018-01-07T19:39:54.207Z,3.50
2018-01-07T19:42:21.965Z,3.50
2018-01-07T19:44:49.844Z,3.40
2018-01-07T19:47:17.636Z,3.50
2018-01-07T19:49:45.665Z,3.50
2018-01-07T19:52:23.158Z,3.50
2018-01-07T19:54:52.428Z,3.70
2018-01-07T19:57:23.727Z,3.90
2018-01-07T19:59:52.365Z,3.90
2018-01-07T20:02:20.326Z,4.00
2018-01-07T20:04:48.241Z,4.20
2018-01-07T20:07:16.019Z,4.30
2018-01-07T20:09:44.554Z,4.40
2018-01-07T20:12:12.410Z,4.50
2018-01-07T20:14:40.223Z,4.60
2018-01-07T20:17:08.127Z,4.70
2018-01-07T20:19:36.063Z,4.70
2018-01-07T20:22:05.447Z,4.80
2018-01-07T20:24:35.086Z,4.80
2018-01-07T20:27:05.306Z,4.80
2018-01-07T20:29:33.126Z,4.90
2018-01-07T20:32:01.404Z,4.90
2018-01-07T20:34:30.134Z,5.00
2018-01-07T20:36:58.807Z,5.00
2018-01-07T20:39:27.042Z,5.10
2018-01-07T20:41:56.888Z,5.20
2018-01-07T20:44:24.769Z,5.10
2018-01-07T20:46:52.543Z,5.20
2018-01-07T20:49:20.381Z,5.20
2018-01-07T20:51:48.490Z,5.20
2018-01-07T20:54:16.500Z,5.20
2018-01-07T20:56:44.364Z,5.20
2018-01-07T20:59:12.160Z,5.20
2018-01-07T21:01:40.001Z,5.10
2018-01-07T21:04:07.799Z,4.90
2018-01-07T21:06:36.322Z,4.90
2018-01-07T21:09:04.367Z,4.90
2018-01-07T21:11:32.251Z,4.90
2018-01-07T21:14:00.161Z,5.00
2018-01-07T21:16:28.960Z,5.10
2018-01-07T21:18:56.902Z,5.10
2018-01-07T21:21:25.600Z,5.10
2018-01-07T21:23:54.165Z,5.20
2018-01-07T21:26:22.422Z,5.20
2018-01-07T21:28:50.341Z,5.20
2018-01-07T21:31:18.245Z,5.20
2018-01-07T21:33:46.044Z,5.20
2018-01-07T21:36:14.085Z,5.10
2018-01-07T21:38:43.547Z,5.20
2018-01-07T21:41:11.524Z,5.20
2018-01-07T21:43:39.264Z,5.30
2018-01-07T21:46:07.104Z,5.30
2018-01-07T21:48:34.925Z,5.20
2018-01-07T21:51:02.824Z,5.00
2018-01-07T21:53:30.747Z,4.90
2018-01-07T21:55:58.902Z,4.90
2018-01-07T21:58:28.283Z,5.00
2018-01-07T22:01:07.807Z,5.00
2018-01-07T22:03:47.948Z,5.10
2018-01-07T22:06:28.069Z,5.10
2018-01-07T22:08:56.171Z,5.10
2018-01-07T22:11:24.589Z,5.00
2018-01-07T22:13:52.514Z,5.00
2018-01-07T22:16:20.368Z,5.00
2018-01-07T22:18:48.247Z,5.00
2018-01-07T22:21:16.228Z,4.90
2018-01-07T22:23:44.051Z,5.00
2018-01-07T22:26:11.810Z,5.00
2018-01-07T22:28:39.867Z,5.10
2018-01-07T22:31:08.568Z,5.20
2018-01-07T22:33:36.449Z,5.20
2018-01-07T22:36:04.270Z,5.20
2018-01-07T22:38:34.050Z,5.30
2018-01-07T22:41:02.161Z,5.30
2018-01-07T22:43:30.046Z,5.40
2018-01-07T22:45:57.865Z,5.40
2018-01-07T22:48:25.614Z,5.30
2018-01-07T22:50:53.391Z,5.30
2018-01-07T22:53:21.369Z,5.30
2018-01-07T22:58:21.320Z,5.30
2018-01-07T23:00:49.022Z,5.30
2018-01-07T23:03:16.762Z,5.30
2018-01-07T23:05:44.523Z,5.30
2018-01-07T23:08:12.219Z,5.30
2018-01-07T23:10:39.964Z,5.30
2018-01-07T23:13:07.759Z,5.20
2018-01-07T23:15:35.559Z,5.30
2018-01-07T23:18:03.280Z,5.30
2018-01-07T23:20:31.120Z,5.30
2018-01-07T23:22:58.881Z,5.40
2018-01-07T23:25:26.663Z,5.40
2018-01-07T23:27:54.522Z,5.50
2018-01-07T23:30:22.260Z,5.40
2018-01-07T23:32:50.020Z,5.50
2018-01-07T23:35:17.839Z,5.50
2018-01-07T23:37:45.640Z,5.50
2018-01-07T23:40:13.380Z,5.50
2018-01-07T23:42:41.200Z,5.50
2018-01-07T23:45:08.960Z,5.40
2018-01-07T23:47:36.740Z,5.50
2018-01-07T23:50:05.320Z,5.50
2018-01-07T23:52:33.141Z,5.50
2018-01-07T23:55:00.900Z,5.60
2018-01-07T23:57:28.761Z,5.70
